createdAt,value
2019-01-30T00:01:42.585Z,31.27
2019-01-30T00:04:09.310Z,31.77
2019-01-30T00:06:36.272Z,23.13
2019-01-30T00:09:06.577Z,20.83
2019-01-30T00:11:33.519Z,20.10
2019-01-30T00:14:00.268Z,21.13
2019-01-30T00:16:27.237Z,21.37
2019-01-30T00:18:54.204Z,21.50
2019-01-30T00:21:20.982Z,22.83
2019-01-30T00:23:47.987Z,22.23
2019-01-30T00:26:15.185Z,22.23
2019-01-30T00:28:42.164Z,21.30
2019-01-30T00:31:09.170Z,22.20
2019-01-30T00:33:35.924Z,21.50
2019-01-30T00:36:02.898Z,21.47
2019-01-30T00:38:29.797Z,20.37
2019-01-30T00:40:56.922Z,20.40
2019-01-30T00:43:24.012Z,21.03
2019-01-30T00:45:51.041Z,20.07
2019-01-30T00:48:17.746Z,18.43
2019-01-30T00:50:44.589Z,18.30
2019-01-30T00:53:12.043Z,18.67
2019-01-30T00:55:38.791Z,18.17
2019-01-30T00:58:05.476Z,18.33
2019-01-30T01:00:32.018Z,17.60
2019-01-30T01:02:58.593Z,17.83
2019-01-30T01:05:25.215Z,17.77
2019-01-30T01:07:51.922Z,19.37
2019-01-30T01:10:20.503Z,19.03
2019-01-30T01:12:47.083Z,19.10
2019-01-30T01:15:15.274Z,18.23
2019-01-30T01:17:41.858Z,19.73
2019-01-30T01:20:14.160Z,19.03
2019-01-30T01:22:41.238Z,18.53
2019-01-30T01:25:12.383Z,18.73
2019-01-30T01:27:39.049Z,19.97
2019-01-30T01:30:10.929Z,19.50
2019-01-30T01:32:37.575Z,19.77
2019-01-30T01:35:07.779Z,18.60
2019-01-30T01:37:36.334Z,17.47
2019-01-30T01:40:08.672Z,20.87
2019-01-30T01:42:38.140Z,20.30
2019-01-30T01:45:10.485Z,20.17
2019-01-30T01:47:37.056Z,22.00
2019-01-30T01:50:09.069Z,21.03
2019-01-30T01:52:35.844Z,19.47
2019-01-30T01:55:06.871Z,20.70
2019-01-30T01:57:33.440Z,21.93
2019-01-30T02:00:00.091Z,20.70
2019-01-30T02:02:26.888Z,21.57
2019-01-30T02:04:53.448Z,21.30
2019-01-30T02:07:20.042Z,21.40
2019-01-30T02:09:46.637Z,19.20
2019-01-30T02:12:14.884Z,21.37
2019-01-30T02:14:41.476Z,18.90
2019-01-30T02:17:08.102Z,19.90
2019-01-30T02:19:34.712Z,21.87
2019-01-30T02:22:01.351Z,20.60
2019-01-30T02:24:27.927Z,21.93
2019-01-30T02:26:57.499Z,20.90
2019-01-30T02:29:24.163Z,23.27
2019-01-30T02:31:50.798Z,21.93
2019-01-30T02:34:17.364Z,21.83
2019-01-30T02:36:45.829Z,21.97
2019-01-30T02:39:12.456Z,23.40
2019-01-30T02:41:39.100Z,24.10
2019-01-30T02:44:05.715Z,23.27
2019-01-30T02:46:32.445Z,24.03
2019-01-30T02:48:59.067Z,23.70
2019-01-30T02:51:25.710Z,23.50
2019-01-30T02:53:52.292Z,25.13
2019-01-30T02:56:18.927Z,24.30
2019-01-30T02:58:45.511Z,24.67
2019-01-30T03:01:12.189Z,23.97
2019-01-30T03:03:38.744Z,25.40
2019-01-30T03:06:05.335Z,25.77
2019-01-30T03:08:31.918Z,24.90
2019-01-30T03:10:58.510Z,25.07
2019-01-30T03:13:25.087Z,24.97
2019-01-30T03:15:51.985Z,25.20
2019-01-30T03:18:18.938Z,22.97
2019-01-30T03:20:45.900Z,22.67
2019-01-30T03:23:12.814Z,23.40
2019-01-30T03:25:39.382Z,24.30
2019-01-30T03:28:05.985Z,22.90
2019-01-30T03:30:32.701Z,23.33
2019-01-30T03:32:59.349Z,21.63
2019-01-30T03:35:25.915Z,22.23
2019-01-30T03:37:52.629Z,23.27
2019-01-30T03:40:20.683Z,22.83
2019-01-30T03:42:47.244Z,23.13
2019-01-30T03:45:18.023Z,23.07
2019-01-30T03:47:44.708Z,22.60
2019-01-30T03:50:13.125Z,21.47
2019-01-30T03:52:39.762Z,22.23
2019-01-30T03:55:11.109Z,22.40
2019-01-30T03:57:37.680Z,22.97
2019-01-30T04:00:10.005Z,21.77
2019-01-30T04:02:36.632Z,20.73
2019-01-30T04:05:06.078Z,20.73
2019-01-30T04:07:32.870Z,20.53
2019-01-30T04:09:59.446Z,21.73
2019-01-30T04:13:22.381Z,21.73
2019-01-30T04:15:48.954Z,20.10
2019-01-30T04:18:15.622Z,22.53
2019-01-30T04:20:42.263Z,21.10
2019-01-30T04:23:08.892Z,21.77
2019-01-30T04:25:35.461Z,19.97
2019-01-30T04:28:02.026Z,20.60
2019-01-30T04:30:28.690Z,21.63
2019-01-30T04:32:55.219Z,22.07
2019-01-30T04:35:21.777Z,22.30
2019-01-30T04:37:49.634Z,23.30
2019-01-30T04:40:19.990Z,21.83
2019-01-30T04:42:46.605Z,21.80
2019-01-30T04:45:18.553Z,19.97
2019-01-30T04:47:45.249Z,19.17
2019-01-30T04:50:11.873Z,19.50
2019-01-30T04:52:38.544Z,20.90
2019-01-30T04:55:07.925Z,19.60
2019-01-30T04:57:34.542Z,21.07
2019-01-30T05:00:05.594Z,18.57
2019-01-30T05:02:32.238Z,19.93
2019-01-30T05:04:58.868Z,19.80
2019-01-30T05:07:25.420Z,20.23
2019-01-30T05:09:52.037Z,20.07
2019-01-30T05:12:18.655Z,20.13
2019-01-30T05:14:45.314Z,20.67
2019-01-30T05:17:13.051Z,20.40
2019-01-30T05:19:39.707Z,19.33
2019-01-30T05:22:06.273Z,19.27
2019-01-30T05:24:32.953Z,18.13
2019-01-30T05:26:59.559Z,18.30
2019-01-30T05:29:26.124Z,19.43
2019-01-30T05:32:00.902Z,18.33
2019-01-30T05:34:21.320Z,20.00
2019-01-30T05:36:47.897Z,19.97
2019-01-30T05:39:14.628Z,20.37
2019-01-30T05:41:41.205Z,20.00
2019-01-30T05:44:10.603Z,22.27
2019-01-30T05:46:37.209Z,21.87
2019-01-30T05:49:03.783Z,22.60
2019-01-30T05:51:30.454Z,21.23
2019-01-30T05:53:57.151Z,22.00
2019-01-30T05:56:23.773Z,22.03
2019-01-30T05:58:50.359Z,20.17
2019-01-30T06:01:16.939Z,21.50
2019-01-30T06:03:43.574Z,18.93
2019-01-30T06:06:10.134Z,20.13
2019-01-30T06:08:36.763Z,18.27
2019-01-30T06:11:03.351Z,19.83
2019-01-30T06:13:29.921Z,20.90
2019-01-30T06:15:56.545Z,21.47
2019-01-30T06:18:23.113Z,21.47
2019-01-30T06:20:52.540Z,21.17
2019-01-30T06:23:19.090Z,20.60
2019-01-30T06:25:45.711Z,22.27
2019-01-30T06:28:12.379Z,21.53
2019-01-30T06:30:39.038Z,22.73
2019-01-30T06:33:05.678Z,22.00
2019-01-30T06:35:32.233Z,22.10
2019-01-30T06:37:58.843Z,21.93
2019-01-30T06:40:30.447Z,22.73
2019-01-30T06:42:56.988Z,24.03
2019-01-30T06:45:23.764Z,23.40
2019-01-30T06:47:50.330Z,24.17
2019-01-30T06:50:16.900Z,24.70
2019-01-30T06:52:43.494Z,24.10
2019-01-30T06:55:10.196Z,24.60
2019-01-30T06:57:37.134Z,25.73
2019-01-30T07:00:09.463Z,24.90
2019-01-30T07:02:36.110Z,27.30
2019-01-30T07:05:04.731Z,26.60
2019-01-30T07:07:31.340Z,27.40
2019-01-30T07:09:57.954Z,27.03
2019-01-30T07:12:24.562Z,26.90
2019-01-30T07:14:51.192Z,26.40
2019-01-30T07:17:17.788Z,28.77
2019-01-30T07:19:44.347Z,28.50
2019-01-30T07:22:10.969Z,29.30
2019-01-30T07:24:37.555Z,28.73
2019-01-30T07:27:04.091Z,29.73
2019-01-30T07:29:30.737Z,31.17
2019-01-30T07:31:57.322Z,30.57
2019-01-30T07:34:23.896Z,30.93
2019-01-30T07:36:50.497Z,30.83
2019-01-30T07:39:17.164Z,27.40
2019-01-30T07:41:43.991Z,29.77
2019-01-30T07:44:10.538Z,30.10
2019-01-30T07:46:37.145Z,31.40
2019-01-30T07:49:03.701Z,29.73
2019-01-30T07:51:30.355Z,30.23
2019-01-30T07:53:57.030Z,31.77
2019-01-30T07:56:23.577Z,31.27
2019-01-30T07:58:50.167Z,30.60
2019-01-30T08:01:16.832Z,32.67
2019-01-30T08:03:43.407Z,31.67
2019-01-30T08:06:09.971Z,31.00
2019-01-30T08:08:36.581Z,31.93
2019-01-30T08:11:03.583Z,31.83
2019-01-30T08:13:30.173Z,29.73
2019-01-30T08:15:56.765Z,29.40
2019-01-30T08:18:23.445Z,30.90
2019-01-30T08:20:49.999Z,30.33
2019-01-30T08:23:17.026Z,29.73
2019-01-30T08:25:43.844Z,31.50
2019-01-30T08:28:10.902Z,30.63
2019-01-30T08:30:37.670Z,29.83
2019-01-30T08:33:06.011Z,30.60
2019-01-30T08:35:32.989Z,31.33
2019-01-30T08:38:01.668Z,28.40
2019-01-30T08:40:28.536Z,29.93
2019-01-30T08:42:56.211Z,24.70
2019-01-30T08:45:26.916Z,29.27
2019-01-30T08:47:53.451Z,28.90
2019-01-30T08:50:20.031Z,29.30
2019-01-30T08:52:46.637Z,27.20
2019-01-30T08:55:15.135Z,28.00
2019-01-30T08:57:45.031Z,28.13
2019-01-30T09:00:16.557Z,27.90
2019-01-30T09:02:43.468Z,28.37
2019-01-30T09:05:11.767Z,27.50
2019-01-30T09:07:44.325Z,28.23
2019-01-30T09:11:05.015Z,28.90
2019-01-30T09:13:31.994Z,27.57
2019-01-30T09:15:58.943Z,28.37
2019-01-30T09:18:26.007Z,26.97
2019-01-30T09:20:53.534Z,27.13
2019-01-30T09:23:20.534Z,28.37
2019-01-30T09:25:47.620Z,25.87
2019-01-30T09:28:15.959Z,28.07
2019-01-30T09:30:42.603Z,25.83
2019-01-30T09:33:09.257Z,24.90
2019-01-30T09:35:35.862Z,27.60
2019-01-30T09:38:03.744Z,27.00
2019-01-30T09:40:30.330Z,28.03
2019-01-30T09:42:57.174Z,27.57
2019-01-30T09:45:23.825Z,24.70
2019-01-30T09:47:50.418Z,24.80
2019-01-30T09:50:21.931Z,26.37
2019-01-30T09:52:50.617Z,26.17
2019-01-30T09:55:17.240Z,28.17
2019-01-30T09:57:43.826Z,26.60
2019-01-30T10:00:16.180Z,26.20
2019-01-30T10:02:42.774Z,25.47
2019-01-30T10:05:11.666Z,26.30
2019-01-30T10:07:38.224Z,27.40
2019-01-30T10:10:10.541Z,26.87
2019-01-30T10:12:37.105Z,26.67
2019-01-30T10:15:09.444Z,27.00
2019-01-30T10:17:36.039Z,26.70
2019-01-30T10:20:08.350Z,25.43
2019-01-30T10:22:34.905Z,26.50
2019-01-30T10:25:01.611Z,26.00
2019-01-30T10:27:28.270Z,27.63
2019-01-30T10:29:54.829Z,26.40
2019-01-30T10:32:22.451Z,26.63
2019-01-30T10:34:49.023Z,27.27
2019-01-30T10:37:16.941Z,27.77
2019-01-30T10:39:43.512Z,27.57
2019-01-30T10:42:10.065Z,26.43
2019-01-30T10:44:36.685Z,29.53
2019-01-30T10:47:03.286Z,28.40
2019-01-30T10:49:29.939Z,27.73
2019-01-30T10:51:56.531Z,28.30
2019-01-30T10:54:24.390Z,31.27
2019-01-30T10:56:50.978Z,28.60
2019-01-30T10:59:17.894Z,28.07
2019-01-30T11:01:44.581Z,31.57
2019-01-30T11:04:11.170Z,31.70
2019-01-30T11:06:37.786Z,33.17
2019-01-30T11:09:06.677Z,30.97
2019-01-30T11:11:33.231Z,31.70
2019-01-30T11:13:59.866Z,31.30
2019-01-30T11:16:26.576Z,32.17
2019-01-30T11:18:53.153Z,30.73
2019-01-30T11:21:19.755Z,33.87
2019-01-30T11:23:46.377Z,34.03
2019-01-30T11:26:12.963Z,32.90
2019-01-30T11:28:39.531Z,34.20
2019-01-30T11:31:06.136Z,35.93
2019-01-30T11:33:32.693Z,35.47
2019-01-30T11:35:59.276Z,33.53
2019-01-30T11:38:25.914Z,34.83
2019-01-30T11:40:52.495Z,35.77
2019-01-30T11:43:19.075Z,34.20
2019-01-30T11:45:45.702Z,35.27
2019-01-30T11:48:12.372Z,33.67
2019-01-30T11:50:39.561Z,33.90
2019-01-30T11:53:06.225Z,35.33
2019-01-30T11:55:32.816Z,33.37
2019-01-30T11:57:59.491Z,32.43
2019-01-30T12:00:32.448Z,29.93
2019-01-30T12:02:59.065Z,33.77
2019-01-30T12:05:27.130Z,33.87
2019-01-30T12:07:53.786Z,34.37
2019-01-30T12:10:20.382Z,35.93
2019-01-30T12:12:46.986Z,35.50
2019-01-30T12:15:18.995Z,31.93
2019-01-30T12:17:45.524Z,35.43
2019-01-30T12:20:12.209Z,35.53
2019-01-30T12:22:38.896Z,36.70
2019-01-30T12:25:11.361Z,30.23
2019-01-30T12:27:39.031Z,33.13
2019-01-30T12:30:10.884Z,31.70
2019-01-30T12:32:37.911Z,34.40
2019-01-30T12:35:06.687Z,36.03
2019-01-30T12:37:34.479Z,34.27
2019-01-30T12:40:07.184Z,36.13
2019-01-30T12:42:33.860Z,35.33
2019-01-30T12:45:00.485Z,33.20
2019-01-30T12:47:27.582Z,35.97
2019-01-30T12:49:54.134Z,35.53
2019-01-30T12:52:21.823Z,34.57
2019-01-30T12:54:48.447Z,34.73
2019-01-30T12:57:15.240Z,35.30
2019-01-30T12:59:42.075Z,35.27
2019-01-30T13:02:08.652Z,37.07
2019-01-30T13:04:38.790Z,31.93
2019-01-30T13:07:03.788Z,39.43
2019-01-30T13:09:30.369Z,35.83
2019-01-30T13:11:56.950Z,35.80
2019-01-30T13:14:23.517Z,33.47
2019-01-30T13:16:50.216Z,34.83
2019-01-30T13:19:17.030Z,34.67
2019-01-30T13:21:43.657Z,36.67
2019-01-30T13:24:10.650Z,36.47
2019-01-30T13:26:39.169Z,31.53
2019-01-30T13:29:05.750Z,39.10
2019-01-30T13:31:32.314Z,37.27
2019-01-30T13:33:58.882Z,36.57
2019-01-30T13:36:25.473Z,32.43
2019-01-30T13:38:52.077Z,36.67
2019-01-30T13:41:18.867Z,37.83
2019-01-30T13:43:45.595Z,38.03
2019-01-30T13:46:13.398Z,39.00
2019-01-30T13:48:40.123Z,38.77
2019-01-30T13:51:07.569Z,40.23
2019-01-30T13:53:34.208Z,36.33
2019-01-30T13:56:01.151Z,35.73
2019-01-30T13:58:27.829Z,37.80
2019-01-30T14:00:54.388Z,37.07
2019-01-30T14:03:21.094Z,40.57
2019-01-30T14:05:49.568Z,38.30
2019-01-30T14:08:16.259Z,37.50
2019-01-30T14:10:43.169Z,35.37
2019-01-30T14:13:09.921Z,36.73
2019-01-30T14:15:36.602Z,39.30
2019-01-30T14:18:03.501Z,38.83
2019-01-30T14:20:30.076Z,37.87
2019-01-30T14:22:56.670Z,38.10
2019-01-30T14:25:25.205Z,39.47
2019-01-30T14:27:52.181Z,39.10
2019-01-30T14:30:25.054Z,39.60
2019-01-30T14:32:52.153Z,39.23
2019-01-30T14:35:19.293Z,37.40
2019-01-30T14:37:47.767Z,36.73
2019-01-30T14:40:19.885Z,39.70
2019-01-30T14:42:48.004Z,40.30
2019-01-30T14:45:17.796Z,39.50
2019-01-30T14:47:47.867Z,39.97
2019-01-30T14:50:22.231Z,39.67
2019-01-30T14:52:49.333Z,38.17
2019-01-30T14:55:18.346Z,40.03
2019-01-30T14:57:45.321Z,41.10
2019-01-30T15:00:16.475Z,39.23
2019-01-30T15:02:43.385Z,40.37
2019-01-30T15:05:21.955Z,41.13
2019-01-30T15:07:42.475Z,40.93
2019-01-30T15:10:14.944Z,45.30
2019-01-30T15:12:41.716Z,41.07
2019-01-30T15:15:12.700Z,43.77
2019-01-30T15:17:39.341Z,42.77
2019-01-30T15:20:11.569Z,45.73
2019-01-30T15:22:38.242Z,43.50
2019-01-30T15:25:10.161Z,45.23
2019-01-30T15:27:37.385Z,45.57
2019-01-30T15:30:09.842Z,49.47
2019-01-30T15:32:36.387Z,50.80
2019-01-30T15:35:05.991Z,48.83
2019-01-30T15:37:32.601Z,44.53
2019-01-30T15:39:59.205Z,46.63
2019-01-30T15:42:25.887Z,47.07
2019-01-30T15:44:52.444Z,48.80
2019-01-30T15:47:19.074Z,46.90
2019-01-30T15:49:46.872Z,45.07
2019-01-30T15:52:13.623Z,42.37
2019-01-30T15:54:40.925Z,44.73
2019-01-30T15:57:08.701Z,41.83
2019-01-30T15:59:35.345Z,42.03
2019-01-30T16:02:02.073Z,42.20
2019-01-30T16:04:28.620Z,42.37
2019-01-30T16:06:55.418Z,41.77
2019-01-30T16:09:23.912Z,42.17
2019-01-30T16:11:50.658Z,41.27
2019-01-30T16:14:17.289Z,41.70
2019-01-30T16:16:43.860Z,39.37
2019-01-30T16:19:10.565Z,41.27
2019-01-30T16:21:37.204Z,40.67
2019-01-30T16:24:03.793Z,39.43
2019-01-30T16:26:30.396Z,40.63
2019-01-30T16:28:57.087Z,39.30
2019-01-30T16:31:23.672Z,39.33
2019-01-30T16:33:50.251Z,38.83
2019-01-30T16:36:20.944Z,38.47
2019-01-30T16:38:49.457Z,36.43
2019-01-30T16:41:16.391Z,37.90
2019-01-30T16:43:42.969Z,37.50
2019-01-30T16:46:09.536Z,36.47
2019-01-30T16:48:36.147Z,37.97
2019-01-30T16:51:02.736Z,39.43
2019-01-30T16:53:29.308Z,35.67
2019-01-30T16:55:55.925Z,37.40
2019-01-30T16:58:22.569Z,35.17
2019-01-30T17:00:49.186Z,38.77
2019-01-30T17:03:15.904Z,37.37
2019-01-30T17:05:45.812Z,34.60
2019-01-30T17:08:12.586Z,33.93
2019-01-30T17:10:39.208Z,34.70
2019-01-30T17:13:05.783Z,33.03
2019-01-30T17:15:36.857Z,36.63
2019-01-30T17:18:04.825Z,34.83
2019-01-30T17:20:35.641Z,31.37
2019-01-30T17:23:02.337Z,33.60
2019-01-30T17:25:29.104Z,35.13
2019-01-30T17:27:55.760Z,33.83
2019-01-30T17:30:26.325Z,32.73
2019-01-30T17:32:52.924Z,33.87
2019-01-30T17:35:19.517Z,35.00
2019-01-30T17:37:46.132Z,32.50
2019-01-30T17:40:18.474Z,34.90
2019-01-30T17:42:45.176Z,32.70
2019-01-30T17:45:11.926Z,35.47
2019-01-30T17:47:38.503Z,33.50
2019-01-30T17:50:10.832Z,34.23
2019-01-30T17:52:37.404Z,33.77
2019-01-30T17:55:05.378Z,34.77
2019-01-30T17:57:32.185Z,35.07
2019-01-30T17:59:58.767Z,32.07
2019-01-30T18:02:25.358Z,34.17
2019-01-30T18:04:52.049Z,32.30
2019-01-30T18:07:18.592Z,33.10
2019-01-30T18:09:45.365Z,33.80
2019-01-30T18:12:11.933Z,33.03
2019-01-30T18:14:38.520Z,32.20
2019-01-30T18:17:05.218Z,29.57
2019-01-30T18:19:31.847Z,31.03
2019-01-30T18:21:58.571Z,31.77
2019-01-30T18:24:25.132Z,33.70
2019-01-30T18:26:51.895Z,30.93
2019-01-30T18:29:18.466Z,30.93
2019-01-30T18:31:46.190Z,29.97
2019-01-30T18:34:13.556Z,33.17
2019-01-30T18:36:41.381Z,31.60
2019-01-30T18:39:08.362Z,28.80
2019-01-30T18:41:34.931Z,30.70
2019-01-30T18:44:01.668Z,30.30
2019-01-30T18:46:28.412Z,31.47
2019-01-30T18:48:56.549Z,30.37
2019-01-30T18:51:23.591Z,30.50
2019-01-30T18:53:50.227Z,30.07
2019-01-30T18:56:16.867Z,32.10
2019-01-30T18:58:44.588Z,31.33
2019-01-30T19:01:11.258Z,29.60
2019-01-30T19:03:37.833Z,29.70
2019-01-30T19:06:04.669Z,28.73
2019-01-30T19:08:31.550Z,30.30
2019-01-30T19:10:58.319Z,29.10
2019-01-30T19:13:24.969Z,29.40
2019-01-30T19:15:52.667Z,29.07
2019-01-30T19:18:19.216Z,29.10
2019-01-30T19:20:45.946Z,27.80
2019-01-30T19:23:12.658Z,28.23
2019-01-30T19:25:39.316Z,28.00
2019-01-30T19:28:07.470Z,30.40
2019-01-30T19:30:34.370Z,29.03
2019-01-30T19:33:01.152Z,29.77
2019-01-30T19:35:27.723Z,29.60
2019-01-30T19:37:55.387Z,29.03
2019-01-30T19:40:22.693Z,28.90
2019-01-30T19:42:49.468Z,30.27
2019-01-30T19:45:21.167Z,27.70
2019-01-30T19:47:48.068Z,28.17
2019-01-30T19:50:20.088Z,28.80
2019-01-30T19:52:46.660Z,28.43
2019-01-30T19:55:13.279Z,28.80
2019-01-30T19:57:39.859Z,28.80
2019-01-30T20:00:12.386Z,27.63
2019-01-30T20:02:39.010Z,28.60
2019-01-30T20:05:09.986Z,28.30
2019-01-30T20:07:36.645Z,30.90
2019-01-30T20:10:09.003Z,28.23
2019-01-30T20:12:35.673Z,23.80
2019-01-30T20:15:09.285Z,30.47
2019-01-30T20:17:36.241Z,31.10
2019-01-30T20:20:08.354Z,29.97
2019-01-30T20:22:34.888Z,32.33
2019-01-30T20:25:01.484Z,29.60
2019-01-30T20:27:28.251Z,29.57
2019-01-30T20:29:54.993Z,32.53
2019-01-30T20:32:21.676Z,30.23
2019-01-30T20:34:48.745Z,30.07
2019-01-30T20:37:25.807Z,30.30
2019-01-30T20:39:44.528Z,31.90
2019-01-30T20:42:12.371Z,29.07
2019-01-30T20:44:39.214Z,30.90
2019-01-30T20:47:07.126Z,30.83
2019-01-30T20:49:33.841Z,31.57
2019-01-30T20:52:00.505Z,31.30
2019-01-30T20:54:27.098Z,31.27
2019-01-30T20:56:57.717Z,33.90
2019-01-30T20:59:26.189Z,31.47
2019-01-30T21:01:52.785Z,33.17
2019-01-30T21:04:19.451Z,33.57
2019-01-30T21:06:46.332Z,29.07
2019-01-30T21:09:12.929Z,29.80
2019-01-30T21:11:43.530Z,28.17
2019-01-30T21:14:10.765Z,29.77
2019-01-30T21:16:37.496Z,30.83
2019-01-30T21:19:04.257Z,28.43
2019-01-30T21:21:31.476Z,29.57
2019-01-30T21:23:58.246Z,29.80
2019-01-30T21:26:24.996Z,29.27
2019-01-30T21:28:51.730Z,27.17
2019-01-30T21:31:18.374Z,30.70
2019-01-30T21:33:45.288Z,27.23
2019-01-30T21:36:12.113Z,28.80
2019-01-30T21:38:38.904Z,25.93
2019-01-30T21:41:05.458Z,28.77
2019-01-30T21:43:32.218Z,26.50
2019-01-30T21:45:58.814Z,30.00
2019-01-30T21:48:25.464Z,26.53
2019-01-30T21:50:52.098Z,28.53
2019-01-30T21:53:18.653Z,23.63
2019-01-30T21:55:45.233Z,30.47
2019-01-30T21:58:11.805Z,24.87
2019-01-30T22:00:38.487Z,28.83
2019-01-30T22:03:05.072Z,28.00
2019-01-30T22:05:33.569Z,30.80
2019-01-30T22:08:01.383Z,29.30
2019-01-30T22:10:28.850Z,28.33
2019-01-30T22:12:55.428Z,31.23
2019-01-30T22:15:22.018Z,32.17
2019-01-30T22:17:48.625Z,26.23
2019-01-30T22:20:19.835Z,28.83
2019-01-30T22:22:46.512Z,28.37
2019-01-30T22:25:20.342Z,30.90
2019-01-30T22:27:46.042Z,28.70
2019-01-30T22:30:17.830Z,28.80
2019-01-30T22:32:44.962Z,30.37
2019-01-30T22:35:11.676Z,25.67
2019-01-30T22:37:38.289Z,30.67
2019-01-30T22:40:11.799Z,30.80
2019-01-30T22:42:38.389Z,27.67
2019-01-30T22:45:09.821Z,26.73
2019-01-30T22:47:36.406Z,28.13
2019-01-30T22:50:07.224Z,28.97
2019-01-30T22:52:33.779Z,28.57
2019-01-30T22:55:00.469Z,26.93
2019-01-30T22:57:27.244Z,30.67
2019-01-30T22:59:53.999Z,26.33
2019-01-30T23:02:20.686Z,28.70
2019-01-30T23:04:53.004Z,28.80
2019-01-30T23:07:25.322Z,28.17
2019-01-30T23:09:57.633Z,29.63
2019-01-30T23:12:28.096Z,29.07
2019-01-30T23:15:00.623Z,27.70
2019-01-30T23:17:33.014Z,28.10
2019-01-30T23:20:05.320Z,29.20
2019-01-30T23:22:33.901Z,27.77
2019-01-30T23:25:06.285Z,28.23
2019-01-30T23:27:38.591Z,26.20
2019-01-30T23:30:10.878Z,26.47
2019-01-30T23:32:43.446Z,29.97
2019-01-30T23:35:15.823Z,25.73
2019-01-30T23:37:46.186Z,26.40
2019-01-30T23:40:14.669Z,28.80
2019-01-30T23:42:47.063Z,28.27
2019-01-30T23:45:19.359Z,28.07
2019-01-30T23:47:51.751Z,28.40
2019-01-30T23:50:25.960Z,27.73
2019-01-30T23:52:58.353Z,29.13
2019-01-30T23:55:30.658Z,26.77
2019-01-30T23:58:03.047Z,27.53
